sensor_id;sensor_type;location;lat;lon;timestamp;pressure;altitude;pressure_sealevel;temperature;humidity
63033;BME280;49121;38.932;-9.018;2022-09-12T00:00:23;100729.91;;;21.61;92.08
63033;BME280;49121;38.932;-9.018;2022-09-12T00:02:25;100743.50;;;21.58;91.81
63033;BME280;49121;38.932;-9.018;2022-09-12T00:04:26;100757.59;;;21.46;92.44
63033;BME280;49121;38.932;-9.018;2022-09-12T00:06:33;100740.97;;;21.39;92.62
63033;BME280;49121;38.932;-9.018;2022-09-12T00:08:34;100751.44;;;21.28;94.13
63033;BME280;49121;38.932;-9.018;2022-09-12T00:10:39;100752.56;;;21.23;95.20
63033;BME280;49121;38.932;-9.018;2022-09-12T00:12:40;100760.94;;;21.17;95.89
63033;BME280;49121;38.932;-9.018;2022-09-12T00:14:59;100747.13;;;21.09;97.22
63033;BME280;49121;38.932;-9.018;2022-09-12T00:17:04;100747.31;;;21.06;98.16
63033;BME280;49121;38.932;-9.018;2022-09-12T00:19:05;100752.81;;;21.03;99.36
63033;BME280;49121;38.932;-9.018;2022-09-12T00:21:06;100756.34;;;21.03;99.89
63033;BME280;49121;38.932;-9.018;2022-09-12T00:23:06;100748.69;;;20.97;99.17
63033;BME280;49121;38.932;-9.018;2022-09-12T00:25:07;100741.78;;;20.93;100.00
63033;BME280;49121;38.932;-9.018;2022-09-12T00:27:08;100736.44;;;20.93;100.00
63033;BME280;49121;38.932;-9.018;2022-09-12T00:29:14;100735.47;;;20.94;100.00
63033;BME280;49121;38.932;-9.018;2022-09-12T00:31:19;100731.09;;;20.93;100.00
63033;BME280;49121;38.932;-9.018;2022-09-12T00:33:39;100706.75;;;20.98;100.00
63033;BME280;49121;38.932;-9.018;2022-09-12T00:35:45;100682.72;;;20.96;100.00
63033;BME280;49121;38.932;-9.018;2022-09-12T00:37:46;100644.50;;;20.94;100.00
63033;BME280;49121;38.932;-9.018;2022-09-12T00:40:06;100663.16;;;20.96;100.00
63033;BME280;49121;38.932;-9.018;2022-09-12T00:46:39;100639.41;;;20.90;100.00
63033;BME280;49121;38.932;-9.018;2022-09-12T00:48:45;100637.50;;;20.92;100.00
63033;BME280;49121;38.932;-9.018;2022-09-12T00:50:48;100634.06;;;20.90;100.00
63033;BME280;49121;38.932;-9.018;2022-09-12T00:52:57;100620.59;;;20.91;100.00
63033;BME280;49121;38.932;-9.018;2022-09-12T00:55:10;100624.41;;;20.87;100.00
63033;BME280;49121;38.932;-9.018;2022-09-12T00:57:13;100635.97;;;20.88;100.00
63033;BME280;49121;38.932;-9.018;2022-09-12T00:59:25;100643.97;;;20.88;100.00
63033;BME280;49121;38.932;-9.018;2022-09-12T01:01:27;100634.25;;;20.87;100.00
63033;BME280;49121;38.932;-9.018;2022-09-12T01:03:28;100635.38;;;20.82;100.00
63033;BME280;49121;38.932;-9.018;2022-09-12T01:05:30;100634.09;;;20.74;100.00
63033;BME280;49121;38.932;-9.018;2022-09-12T01:07:36;100655.38;;;20.75;100.00
63033;BME280;49121;38.932;-9.018;2022-09-12T01:09:37;100648.22;;;20.76;100.00
63033;BME280;49121;38.932;-9.018;2022-09-12T01:11:39;100629.47;;;20.76;100.00
63033;BME280;49121;38.932;-9.018;2022-09-12T01:13:41;100628.63;;;20.75;100.00
63033;BME280;49121;38.932;-9.018;2022-09-12T01:15:44;100639.44;;;20.74;100.00
63033;BME280;49121;38.932;-9.018;2022-09-12T01:20:13;100644.53;;;20.78;100.00
63033;BME280;49121;38.932;-9.018;2022-09-12T01:22:52;100637.44;;;20.77;100.00
63033;BME280;49121;38.932;-9.018;2022-09-12T01:25:23;100618.88;;;20.74;100.00
63033;BME280;49121;38.932;-9.018;2022-09-12T01:34:40;100603.25;;;20.67;100.00
63033;BME280;49121;38.932;-9.018;2022-09-12T01:48:45;100696.66;;;20.54;100.00
63033;BME280;49121;38.932;-9.018;2022-09-12T01:51:03;100694.94;;;20.53;100.00
63033;BME280;49121;38.932;-9.018;2022-09-12T01:53:12;100688.72;;;20.52;100.00
63033;BME280;49121;38.932;-9.018;2022-09-12T01:58:19;100667.25;;;20.54;100.00
63033;BME280;49121;38.932;-9.018;2022-09-12T02:00:21;100648.28;;;20.58;100.00
63033;BME280;49121;38.932;-9.018;2022-09-12T02:02:58;100639.41;;;20.58;100.00
63033;BME280;49121;38.932;-9.018;2022-09-12T02:05:07;100641.28;;;20.56;100.00
63033;BME280;49121;38.932;-9.018;2022-09-12T02:07:39;100615.75;;;20.50;100.00
63033;BME280;49121;38.932;-9.018;2022-09-12T02:09:53;100617.66;;;20.48;100.00
63033;BME280;49121;38.932;-9.018;2022-09-12T02:12:09;100599.59;;;20.52;100.00
63033;BME280;49121;38.932;-9.018;2022-09-12T02:14:19;100598.56;;;20.54;100.00
63033;BME280;49121;38.932;-9.018;2022-09-12T02:16:30;100613.75;;;20.54;100.00
63033;BME280;49121;38.932;-9.018;2022-09-12T02:18:33;100608.59;;;20.51;100.00
63033;BME280;49121;38.932;-9.018;2022-09-12T02:20:56;100611.28;;;20.51;100.00
63033;BME280;49121;38.932;-9.018;2022-09-12T02:23:20;100619.09;;;20.54;100.00
63033;BME280;49121;38.932;-9.018;2022-09-12T02:25:22;100632.25;;;20.58;100.00
63033;BME280;49121;38.932;-9.018;2022-09-12T02:29:27;100612.59;;;20.59;100.00
63033;BME280;49121;38.932;-9.018;2022-09-12T02:31:32;100612.66;;;20.58;100.00
63033;BME280;49121;38.932;-9.018;2022-09-12T02:35:51;100627.13;;;20.54;100.00
63033;BME280;49121;38.932;-9.018;2022-09-12T02:39:59;100633.44;;;20.53;100.00
63033;BME280;49121;38.932;-9.018;2022-09-12T02:42:00;100641.47;;;20.53;100.00
63033;BME280;49121;38.932;-9.018;2022-09-12T02:44:02;100645.19;;;20.50;100.00
63033;BME280;49121;38.932;-9.018;2022-09-12T02:53:20;100636.28;;;20.50;100.00
63033;BME280;49121;38.932;-9.018;2022-09-12T02:55:39;100619.19;;;20.52;100.00
63033;BME280;49121;38.932;-9.018;2022-09-12T02:57:40;100603.25;;;20.51;100.00
63033;BME280;49121;38.932;-9.018;2022-09-12T02:59:40;100615.66;;;20.52;100.00
63033;BME280;49121;38.932;-9.018;2022-09-12T03:06:08;100632.56;;;20.52;100.00
63033;BME280;49121;38.932;-9.018;2022-09-12T03:19:02;100651.38;;;20.51;100.00
63033;BME280;49121;38.932;-9.018;2022-09-12T03:21:12;100650.53;;;20.50;100.00
63033;BME280;49121;38.932;-9.018;2022-09-12T03:23:25;100631.31;;;20.59;100.00
63033;BME280;49121;38.932;-9.018;2022-09-12T03:25:30;100631.25;;;20.61;100.00
63033;BME280;49121;38.932;-9.018;2022-09-12T03:27:35;100609.91;;;20.59;100.00
63033;BME280;49121;38.932;-9.018;2022-09-12T03:29:37;100597.56;;;20.57;100.00
63033;BME280;49121;38.932;-9.018;2022-09-12T03:31:49;100569.34;;;20.51;100.00
63033;BME280;49121;38.932;-9.018;2022-09-12T03:33:50;100561.31;;;20.51;100.00
63033;BME280;49121;38.932;-9.018;2022-09-12T03:35:54;100576.66;;;20.48;100.00
63033;BME280;49121;38.932;-9.018;2022-09-12T03:37:55;100563.91;;;20.53;100.00
63033;BME280;49121;38.932;-9.018;2022-09-12T03:39:55;100557.00;;;20.49;100.00
63033;BME280;49121;38.932;-9.018;2022-09-12T03:41:56;100553.38;;;20.50;100.00
63033;BME280;49121;38.932;-9.018;2022-09-12T03:43:56;100555.13;;;20.51;100.00
63033;BME280;49121;38.932;-9.018;2022-09-12T03:45:58;100542.69;;;20.50;100.00
63033;BME280;49121;38.932;-9.018;2022-09-12T03:47:58;100533.81;;;20.49;100.00
63033;BME280;49121;38.932;-9.018;2022-09-12T03:49:59;100535.63;;;20.49;100.00
63033;BME280;49121;38.932;-9.018;2022-09-12T03:52:00;100530.28;;;20.49;100.00
63033;BME280;49121;38.932;-9.018;2022-09-12T03:54:00;100535.00;;;20.43;100.00
63033;BME280;49121;38.932;-9.018;2022-09-12T04:03:02;100533.56;;;20.38;100.00
63033;BME280;49121;38.932;-9.018;2022-09-12T04:05:03;100524.50;;;20.40;100.00
63033;BME280;49121;38.932;-9.018;2022-09-12T04:07:04;100530.88;;;20.38;100.00
63033;BME280;49121;38.932;-9.018;2022-09-12T04:11:42;100521.13;;;20.37;100.00
63033;BME280;49121;38.932;-9.018;2022-09-12T04:13:43;100525.81;;;20.33;100.00
63033;BME280;49121;38.932;-9.018;2022-09-12T04:15:54;100515.13;;;20.33;100.00
63033;BME280;49121;38.932;-9.018;2022-09-12T04:20:32;100485.09;;;20.28;100.00
63033;BME280;49121;38.932;-9.018;2022-09-12T04:22:32;100476.13;;;20.29;100.00
63033;BME280;49121;38.932;-9.018;2022-09-12T04:24:33;100486.91;;;20.28;100.00
63033;BME280;49121;38.932;-9.018;2022-09-12T04:26:33;100494.84;;;20.29;100.00
63033;BME280;49121;38.932;-9.018;2022-09-12T04:28:34;100496.47;;;20.32;100.00
63033;BME280;49121;38.932;-9.018;2022-09-12T04:30:36;100489.59;;;20.28;100.00
63033;BME280;49121;38.932;-9.018;2022-09-12T04:32:37;100484.25;;;20.28;100.00
63033;BME280;49121;38.932;-9.018;2022-09-12T04:34:37;100497.59;;;20.28;100.00
63033;BME280;49121;38.932;-9.018;2022-09-12T04:36:38;100509.94;;;20.30;100.00
63033;BME280;49121;38.932;-9.018;2022-09-12T04:40:59;100509.78;;;20.33;100.00
63033;BME280;49121;38.932;-9.018;2022-09-12T04:43:00;100498.19;;;20.33;100.00
63033;BME280;49121;38.932;-9.018;2022-09-12T04:45:00;100508.22;;;20.29;100.00
63033;BME280;49121;38.932;-9.018;2022-09-12T04:47:00;100507.09;;;20.33;100.00
63033;BME280;49121;38.932;-9.018;2022-09-12T04:49:02;100501.63;;;20.35;100.00
63033;BME280;49121;38.932;-9.018;2022-09-12T04:51:17;100494.38;;;20.37;100.00
63033;BME280;49121;38.932;-9.018;2022-09-12T04:53:20;100514.84;;;20.38;100.00
63033;BME280;49121;38.932;-9.018;2022-09-12T04:55:39;100502.91;;;20.43;100.00
63033;BME280;49121;38.932;-9.018;2022-09-12T04:57:39;100512.69;;;20.45;100.00
63033;BME280;49121;38.932;-9.018;2022-09-12T04:59:40;100513.63;;;20.43;100.00
63033;BME280;49121;38.932;-9.018;2022-09-12T05:01:40;100513.47;;;20.47;100.00
63033;BME280;49121;38.932;-9.018;2022-09-12T05:03:41;100510.69;;;20.48;100.00
63033;BME280;49121;38.932;-9.018;2022-09-12T05:05:42;100528.53;;;20.48;100.00
63033;BME280;49121;38.932;-9.018;2022-09-12T05:07:43;100535.44;;;20.52;100.00
63033;BME280;49121;38.932;-9.018;2022-09-12T05:12:21;100523.03;;;20.51;100.00
63033;BME280;49121;38.932;-9.018;2022-09-12T05:14:40;100508.63;;;20.53;100.00
63033;BME280;49121;38.932;-9.018;2022-09-12T05:16:41;100488.28;;;20.51;100.00
63033;BME280;49121;38.932;-9.018;2022-09-12T05:18:42;100477.38;;;20.54;100.00
63033;BME280;49121;38.932;-9.018;2022-09-12T05:20:43;100489.81;;;20.55;100.00
63033;BME280;49121;38.932;-9.018;2022-09-12T05:22:44;100482.66;;;20.55;100.00
63033;BME280;49121;38.932;-9.018;2022-09-12T05:24:44;100469.28;;;20.55;100.00
63033;BME280;49121;38.932;-9.018;2022-09-12T05:26:45;100463.22;;;20.52;100.00
63033;BME280;49121;38.932;-9.018;2022-09-12T05:29:04;100456.25;;;20.49;100.00
63033;BME280;49121;38.932;-9.018;2022-09-12T05:31:07;100456.19;;;20.51;100.00
63033;BME280;49121;38.932;-9.018;2022-09-12T05:33:08;100450.06;;;20.49;100.00
63033;BME280;49121;38.932;-9.018;2022-09-12T05:35:09;100452.66;;;20.50;100.00
63033;BME280;49121;38.932;-9.018;2022-09-12T05:37:10;100448.16;;;20.51;100.00
63033;BME280;49121;38.932;-9.018;2022-09-12T05:39:10;100456.25;;;20.49;100.00
63033;BME280;49121;38.932;-9.018;2022-09-12T05:41:12;100459.78;;;20.50;100.00
63033;BME280;49121;38.932;-9.018;2022-09-12T05:43:13;100455.41;;;20.49;100.00
63033;BME280;49121;38.932;-9.018;2022-09-12T05:45:32;100451.75;;;20.50;100.00
63033;BME280;49121;38.932;-9.018;2022-09-12T05:47:52;100455.41;;;20.49;100.00
63033;BME280;49121;38.932;-9.018;2022-09-12T05:49:56;100462.66;;;20.47;100.00
63033;BME280;49121;38.932;-9.018;2022-09-12T05:52:15;100467.03;;;20.48;100.00
63033;BME280;49121;38.932;-9.018;2022-09-12T05:54:34;100467.16;;;20.46;100.00
63033;BME280;49121;38.932;-9.018;2022-09-12T05:56:39;100481.44;;;20.45;100.00
63033;BME280;49121;38.932;-9.018;2022-09-12T05:58:41;100487.50;;;20.49;100.00
63033;BME280;49121;38.932;-9.018;2022-09-12T06:00:42;100498.97;;;20.51;100.00
63033;BME280;49121;38.932;-9.018;2022-09-12T06:02:42;100504.38;;;20.49;100.00
63033;BME280;49121;38.932;-9.018;2022-09-12T06:04:43;100518.47;;;20.53;100.00
63033;BME280;49121;38.932;-9.018;2022-09-12T06:09:04;100557.59;;;20.54;100.00
63033;BME280;49121;38.932;-9.018;2022-09-12T06:11:05;100562.88;;;20.55;100.00
63033;BME280;49121;38.932;-9.018;2022-09-12T06:13:06;100569.03;;;20.57;100.00
63033;BME280;49121;38.932;-9.018;2022-09-12T06:15:08;100562.63;;;20.60;100.00
63033;BME280;49121;38.932;-9.018;2022-09-12T06:17:27;100566.47;;;20.54;100.00
63033;BME280;49121;38.932;-9.018;2022-09-12T06:19:27;100561.25;;;20.53;100.00
63033;BME280;49121;38.932;-9.018;2022-09-12T06:21:28;100573.06;;;20.49;100.00
63033;BME280;49121;38.932;-9.018;2022-09-12T06:23:30;100567.78;;;20.47;100.00
63033;BME280;49121;38.932;-9.018;2022-09-12T06:25:31;100565.88;;;20.49;100.00
63033;BME280;49121;38.932;-9.018;2022-09-12T06:27:31;100567.00;;;20.45;100.00
63033;BME280;49121;38.932;-9.018;2022-09-12T06:29:32;100568.06;;;20.42;100.00
63033;BME280;49121;38.932;-9.018;2022-09-12T06:31:34;100576.25;;;20.39;100.00
63033;BME280;49121;38.932;-9.018;2022-09-12T06:33:35;100565.72;;;20.36;100.00
63033;BME280;49121;38.932;-9.018;2022-09-12T06:35:36;100570.47;;;20.31;100.00
63033;BME280;49121;38.932;-9.018;2022-09-12T06:37:37;100577.72;;;20.29;100.00
63033;BME280;49121;38.932;-9.018;2022-09-12T06:39:38;100573.50;;;20.25;100.00
63033;BME280;49121;38.932;-9.018;2022-09-12T06:41:38;100574.28;;;20.27;100.00
63033;BME280;49121;38.932;-9.018;2022-09-12T06:45:58;100565.53;;;20.23;100.00
63033;BME280;49121;38.932;-9.018;2022-09-12T06:47:58;100562.88;;;20.23;100.00
63033;BME280;49121;38.932;-9.018;2022-09-12T06:49:59;100551.13;;;20.26;100.00
63033;BME280;49121;38.932;-9.018;2022-09-12T06:52:00;100536.13;;;20.23;100.00
63033;BME280;49121;38.932;-9.018;2022-09-12T06:54:00;100532.63;;;20.23;100.00
63033;BME280;49121;38.932;-9.018;2022-09-12T06:56:02;100529.09;;;20.22;100.00
63033;BME280;49121;38.932;-9.018;2022-09-12T06:58:03;100527.44;;;20.20;100.00
63033;BME280;49121;38.932;-9.018;2022-09-12T07:00:04;100525.72;;;20.19;100.00
63033;BME280;49121;38.932;-9.018;2022-09-12T07:02:09;100509.50;;;20.22;100.00
63033;BME280;49121;38.932;-9.018;2022-09-12T07:04:10;100497.88;;;20.23;100.00
63033;BME280;49121;38.932;-9.018;2022-09-12T07:06:11;100486.41;;;20.21;100.00
63033;BME280;49121;38.932;-9.018;2022-09-12T07:08:30;100485.28;;;20.25;100.00
63033;BME280;49121;38.932;-9.018;2022-09-12T07:10:31;100485.28;;;20.25;100.00
63033;BME280;49121;38.932;-9.018;2022-09-12T07:12:50;100474.41;;;20.28;100.00
63033;BME280;49121;38.932;-9.018;2022-09-12T07:14:50;100474.66;;;20.23;100.00
63033;BME280;49121;38.932;-9.018;2022-09-12T07:16:51;100466.72;;;20.22;100.00
63033;BME280;49121;38.932;-9.018;2022-09-12T07:18:58;100467.00;;;20.17;100.00
63033;BME280;49121;38.932;-9.018;2022-09-12T07:20:59;100462.19;;;20.08;100.00
63033;BME280;49121;38.932;-9.018;2022-09-12T07:23:01;100445.44;;;20.05;100.00
63033;BME280;49121;38.932;-9.018;2022-09-12T07:25:02;100437.53;;;20.03;100.00
63033;BME280;49121;38.932;-9.018;2022-09-12T07:27:02;100442.97;;;20.01;100.00
63033;BME280;49121;38.932;-9.018;2022-09-12T07:29:03;100441.34;;;19.99;100.00
63033;BME280;49121;38.932;-9.018;2022-09-12T07:31:14;100451.91;;;20.00;100.00
63033;BME280;49121;38.932;-9.018;2022-09-12T07:33:15;100447.47;;;20.01;100.00
63033;BME280;49121;38.932;-9.018;2022-09-12T07:35:15;100448.47;;;19.98;100.00
63033;BME280;49121;38.932;-9.018;2022-09-12T07:37:16;100433.06;;;20.04;100.00
63033;BME280;49121;38.932;-9.018;2022-09-12T07:39:17;100423.22;;;20.04;100.00
63033;BME280;49121;38.932;-9.018;2022-09-12T07:41:18;100419.69;;;20.04;100.00
63033;BME280;49121;38.932;-9.018;2022-09-12T07:43:20;100414.34;;;20.04;100.00
63033;BME280;49121;38.932;-9.018;2022-09-12T07:45:21;100404.09;;;20.12;100.00
63033;BME280;49121;38.932;-9.018;2022-09-12T07:47:22;100412.09;;;20.12;100.00
63033;BME280;49121;38.932;-9.018;2022-09-12T07:49:22;100422.41;;;20.18;100.00
63033;BME280;49121;38.932;-9.018;2022-09-12T07:51:23;100433.03;;;20.19;100.00
63033;BME280;49121;38.932;-9.018;2022-09-12T07:53:24;100443.56;;;20.22;100.00
63033;BME280;49121;38.932;-9.018;2022-09-12T07:55:25;100452.16;;;20.28;100.00
63033;BME280;49121;38.932;-9.018;2022-09-12T07:57:26;100439.28;;;20.34;100.00
63033;BME280;49121;38.932;-9.018;2022-09-12T07:59:26;100435.50;;;20.38;100.00
63033;BME280;49121;38.932;-9.018;2022-09-12T08:01:27;100430.22;;;20.53;100.00
63033;BME280;49121;38.932;-9.018;2022-09-12T08:03:27;100434.94;;;20.63;100.00
63033;BME280;49121;38.932;-9.018;2022-09-12T08:05:28;100434.13;;;20.77;100.00
63033;BME280;49121;38.932;-9.018;2022-09-12T08:07:29;100434.53;;;20.86;100.00
63033;BME280;49121;38.932;-9.018;2022-09-12T08:09:29;100444.50;;;20.98;100.00
63033;BME280;49121;38.932;-9.018;2022-09-12T08:11:30;100450.00;;;20.95;100.00
63033;BME280;49121;38.932;-9.018;2022-09-12T08:13:30;100462.94;;;21.02;100.00
63033;BME280;49121;38.932;-9.018;2022-09-12T08:15:31;100465.81;;;21.14;100.00
63033;BME280;49121;38.932;-9.018;2022-09-12T08:17:33;100468.50;;;21.28;100.00
63033;BME280;49121;38.932;-9.018;2022-09-12T08:19:34;100470.41;;;21.26;100.00
63033;BME280;49121;38.932;-9.018;2022-09-12T08:21:34;100478.13;;;21.16;100.00
63033;BME280;49121;38.932;-9.018;2022-09-12T08:23:35;100486.41;;;21.28;100.00
63033;BME280;49121;38.932;-9.018;2022-09-12T08:25:35;100493.66;;;21.26;100.00
63033;BME280;49121;38.932;-9.018;2022-09-12T08:27:36;100501.22;;;21.33;100.00
63033;BME280;49121;38.932;-9.018;2022-09-12T08:29:36;100500.34;;;21.33;100.00
63033;BME280;49121;38.932;-9.018;2022-09-12T08:31:37;100492.53;;;21.30;100.00
63033;BME280;49121;38.932;-9.018;2022-09-12T08:33:38;100492.13;;;21.21;100.00
63033;BME280;49121;38.932;-9.018;2022-09-12T08:35:38;100499.31;;;21.21;100.00
63033;BME280;49121;38.932;-9.018;2022-09-12T08:37:39;100505.78;;;21.17;100.00
63033;BME280;49121;38.932;-9.018;2022-09-12T08:39:40;100520.13;;;21.16;100.00
63033;BME280;49121;38.932;-9.018;2022-09-12T08:41:42;100511.81;;;21.20;100.00
63033;BME280;49121;38.932;-9.018;2022-09-12T08:43:50;100513.53;;;21.21;100.00
63033;BME280;49121;38.932;-9.018;2022-09-12T08:45:53;100509.13;;;21.20;100.00
63033;BME280;49121;38.932;-9.018;2022-09-12T08:48:00;100501.22;;;21.33;100.00
63033;BME280;49121;38.932;-9.018;2022-09-12T08:50:20;100485.34;;;21.30;100.00
63033;BME280;49121;38.932;-9.018;2022-09-12T08:52:26;100480.94;;;21.29;100.00
63033;BME280;49121;38.932;-9.018;2022-09-12T08:54:28;100477.88;;;21.35;100.00
63033;BME280;49121;38.932;-9.018;2022-09-12T08:56:30;100475.50;;;21.31;100.00
63033;BME280;49121;38.932;-9.018;2022-09-12T08:58:37;100487.72;;;21.20;100.00
63033;BME280;49121;38.932;-9.018;2022-09-12T09:05:13;100483.53;;;21.31;100.00
63033;BME280;49121;38.932;-9.018;2022-09-12T09:09:23;100478.69;;;21.52;100.00
63033;BME280;49121;38.932;-9.018;2022-09-12T09:13:48;100469.09;;;21.76;100.00
63033;BME280;49121;38.932;-9.018;2022-09-12T09:16:30;100489.44;;;22.08;98.59
63033;BME280;49121;38.932;-9.018;2022-09-12T09:18:32;100499.94;;;22.11;99.20
63033;BME280;49121;38.932;-9.018;2022-09-12T09:20:39;100493.09;;;22.07;99.75
63033;BME280;49121;38.932;-9.018;2022-09-12T09:22:45;100483.31;;;21.91;98.49
63033;BME280;49121;38.932;-9.018;2022-09-12T09:24:49;100484.38;;;22.03;99.39
63033;BME280;49121;38.932;-9.018;2022-09-12T09:27:01;100487.44;;;22.11;97.05
63033;BME280;49121;38.932;-9.018;2022-09-12T09:29:14;100478.34;;;21.99;97.98
63033;BME280;49121;38.932;-9.018;2022-09-12T09:31:20;100477.22;;;21.89;98.87
63033;BME280;49121;38.932;-9.018;2022-09-12T09:33:22;100483.84;;;21.83;99.83
63033;BME280;49121;38.932;-9.018;2022-09-12T09:35:30;100482.59;;;21.75;100.00
63033;BME280;49121;38.932;-9.018;2022-09-12T09:37:41;100500.97;;;21.52;100.00
63033;BME280;49121;38.932;-9.018;2022-09-12T09:40:05;100510.53;;;21.42;100.00
63033;BME280;49121;38.932;-9.018;2022-09-12T09:44:13;100514.84;;;21.00;100.00
63033;BME280;49121;38.932;-9.018;2022-09-12T09:46:14;100505.56;;;20.75;100.00
63033;BME280;49121;38.932;-9.018;2022-09-12T09:48:18;100506.56;;;20.58;100.00
63033;BME280;49121;38.932;-9.018;2022-09-12T09:50:20;100493.88;;;20.46;100.00
63033;BME280;49121;38.932;-9.018;2022-09-12T09:52:23;100507.88;;;20.35;100.00
63033;BME280;49121;38.932;-9.018;2022-09-12T09:54:25;100499.22;;;20.30;100.00
63033;BME280;49121;38.932;-9.018;2022-09-12T09:58:30;100497.34;;;20.16;100.00
63033;BME280;49121;38.932;-9.018;2022-09-12T10:00:34;100486.66;;;20.16;100.00
63033;BME280;49121;38.932;-9.018;2022-09-12T10:02:35;100483.22;;;20.14;100.00
63033;BME280;49121;38.932;-9.018;2022-09-12T10:04:38;100487.59;;;20.15;100.00
63033;BME280;49121;38.932;-9.018;2022-09-12T10:06:39;100487.72;;;20.14;100.00
63033;BME280;49121;38.932;-9.018;2022-09-12T10:08:39;100493.97;;;20.13;100.00
63033;BME280;49121;38.932;-9.018;2022-09-12T10:10:51;100504.88;;;20.10;100.00
63033;BME280;49121;38.932;-9.018;2022-09-12T10:13:05;100518.22;;;20.10;100.00
63033;BME280;49121;38.932;-9.018;2022-09-12T10:19:35;100475.19;;;20.14;100.00
63033;BME280;49121;38.932;-9.018;2022-09-12T10:21:54;100454.50;;;20.18;100.00
63033;BME280;49121;38.932;-9.018;2022-09-12T10:24:02;100442.44;;;20.27;100.00
63033;BME280;49121;38.932;-9.018;2022-09-12T10:26:07;100445.47;;;20.20;100.00
63033;BME280;49121;38.932;-9.018;2022-09-12T10:28:11;100446.38;;;20.19;100.00
63033;BME280;49121;38.932;-9.018;2022-09-12T10:30:18;100440.88;;;20.22;100.00
63033;BME280;49121;38.932;-9.018;2022-09-12T10:32:26;100445.84;;;20.29;100.00
63033;BME280;49121;38.932;-9.018;2022-09-12T10:34:40;100451.03;;;20.32;100.00
63033;BME280;49121;38.932;-9.018;2022-09-12T10:36:42;100458.19;;;20.31;100.00
63033;BME280;49121;38.932;-9.018;2022-09-12T10:38:50;100477.94;;;20.29;100.00
63033;BME280;49121;38.932;-9.018;2022-09-12T10:40:59;100487.19;;;20.23;100.00
63033;BME280;49121;38.932;-9.018;2022-09-12T10:43:00;100491.66;;;20.22;100.00
63033;BME280;49121;38.932;-9.018;2022-09-12T10:45:03;100482.69;;;20.23;100.00
63033;BME280;49121;38.932;-9.018;2022-09-12T10:49:33;100478.31;;;20.22;100.00
63033;BME280;49121;38.932;-9.018;2022-09-12T10:51:37;100459.59;;;20.22;100.00
63033;BME280;49121;38.932;-9.018;2022-09-12T10:53:38;100448.91;;;20.22;100.00
63033;BME280;49121;38.932;-9.018;2022-09-12T10:55:40;100444.69;;;20.18;100.00
63033;BME280;49121;38.932;-9.018;2022-09-12T10:57:48;100442.28;;;20.14;100.00
63033;BME280;49121;38.932;-9.018;2022-09-12T11:02:00;100444.69;;;20.18;100.00
63033;BME280;49121;38.932;-9.018;2022-09-12T11:04:18;100438.03;;;20.26;100.00
63033;BME280;49121;38.932;-9.018;2022-09-12T11:06:22;100440.34;;;20.32;100.00
63033;BME280;49121;38.932;-9.018;2022-09-12T11:14:58;100400.59;;;20.56;100.00
63033;BME280;49121;38.932;-9.018;2022-09-12T11:17:08;100388.88;;;20.58;100.00
63033;BME280;49121;38.932;-9.018;2022-09-12T11:21:26;100398.72;;;20.58;100.00
63033;BME280;49121;38.932;-9.018;2022-09-12T11:29:48;100380.44;;;20.80;100.00
63033;BME280;49121;38.932;-9.018;2022-09-12T11:32:09;100391.72;;;20.86;100.00
63033;BME280;49121;38.932;-9.018;2022-09-12T11:34:11;100394.13;;;21.04;100.00
63033;BME280;49121;38.932;-9.018;2022-09-12T11:40:24;100398.59;;;21.33;100.00
63033;BME280;49121;38.932;-9.018;2022-09-12T11:45:19;100397.94;;;21.29;100.00
63033;BME280;49121;38.932;-9.018;2022-09-12T11:49:42;100392.88;;;20.96;100.00
63033;BME280;49121;38.932;-9.018;2022-09-12T11:53:45;100391.63;;;21.16;100.00
63033;BME280;49121;38.932;-9.018;2022-09-12T11:55:55;100386.09;;;21.19;100.00
63033;BME280;49121;38.932;-9.018;2022-09-12T11:57:58;100394.41;;;21.29;100.00
63033;BME280;49121;38.932;-9.018;2022-09-12T12:00:02;100389.44;;;21.37;100.00
63033;BME280;49121;38.932;-9.018;2022-09-12T12:04:26;100388.19;;;21.57;100.00
63033;BME280;49121;38.932;-9.018;2022-09-12T12:06:31;100384.94;;;21.52;100.00
63033;BME280;49121;38.932;-9.018;2022-09-12T12:08:36;100383.00;;;21.39;100.00
63033;BME280;49121;38.932;-9.018;2022-09-12T12:10:39;100378.53;;;21.26;100.00
63033;BME280;49121;38.932;-9.018;2022-09-12T12:12:40;100366.88;;;21.27;100.00
63033;BME280;49121;38.932;-9.018;2022-09-12T12:14:42;100363.94;;;21.17;100.00
63033;BME280;49121;38.932;-9.018;2022-09-12T12:16:44;100362.28;;;21.14;100.00
63033;BME280;49121;38.932;-9.018;2022-09-12T12:18:45;100362.28;;;21.14;100.00
63033;BME280;49121;38.932;-9.018;2022-09-12T12:20:53;100368.41;;;21.02;100.00
63033;BME280;49121;38.932;-9.018;2022-09-12T12:22:54;100365.34;;;20.79;100.00
63033;BME280;49121;38.932;-9.018;2022-09-12T12:26:56;100352.94;;;20.78;100.00
63033;BME280;49121;38.932;-9.018;2022-09-12T12:28:57;100347.75;;;20.90;100.00
63033;BME280;49121;38.932;-9.018;2022-09-12T12:30:59;100341.44;;;21.05;100.00
63033;BME280;49121;38.932;-9.018;2022-09-12T12:33:01;100328.16;;;21.18;100.00
63033;BME280;49121;38.932;-9.018;2022-09-12T12:35:14;100322.97;;;21.29;100.00
63033;BME280;49121;38.932;-9.018;2022-09-12T12:43:34;100306.97;;;21.56;100.00
63033;BME280;49121;38.932;-9.018;2022-09-12T12:49:35;100292.53;;;21.86;100.00
63033;BME280;49121;38.932;-9.018;2022-09-12T12:53:39;100298.75;;;22.27;100.00
63033;BME280;49121;38.932;-9.018;2022-09-12T13:01:54;100312.53;;;22.73;92.45
63033;BME280;49121;38.932;-9.018;2022-09-12T13:03:58;100305.41;;;22.72;93.07
63033;BME280;49121;38.932;-9.018;2022-09-12T13:06:01;100314.44;;;22.71;93.05